createdAt,value
2019-05-17T00:00:27.377Z,1001.89
2019-05-17T00:01:27.060Z,1001.92
2019-05-17T00:02:26.637Z,1001.88
2019-05-17T00:03:28.316Z,1001.89
2019-05-17T00:04:27.019Z,1001.91
2019-05-17T00:05:26.584Z,1001.87
2019-05-17T00:06:27.568Z,1001.89
2019-05-17T00:07:27.321Z,1001.84
2019-05-17T00:08:33.883Z,1001.79
2019-05-17T00:09:27.323Z,1001.85
2019-05-17T00:10:26.803Z,1001.76
2019-05-17T00:11:27.310Z,1001.78
2019-05-17T00:12:27.082Z,1001.77
2019-05-17T00:13:26.829Z,1001.74
2019-05-17T00:14:27.132Z,1001.75
2019-05-17T00:15:27.328Z,1001.80
2019-05-17T00:16:26.937Z,1001.79
2019-05-17T00:17:26.726Z,1001.77
2019-05-17T00:18:26.805Z,1001.77
2019-05-17T00:19:26.409Z,1001.71
2019-05-17T00:20:26.571Z,1001.70
2019-05-17T00:21:27.536Z,1001.77
2019-05-17T00:22:27.049Z,1001.75
2019-05-17T00:23:27.840Z,1001.70
2019-05-17T00:24:26.634Z,1001.69
2019-05-17T00:25:27.377Z,1001.70
2019-05-17T00:26:26.927Z,1001.65
2019-05-17T00:27:26.462Z,1001.62
2019-05-17T00:28:26.909Z,1001.62
2019-05-17T00:29:26.480Z,1001.59
2019-05-17T00:30:26.605Z,1001.58
2019-05-17T00:31:26.391Z,1001.57
2019-05-17T00:32:27.456Z,1001.62
2019-05-17T00:33:27.190Z,1001.58
2019-05-17T00:34:27.027Z,1001.54
2019-05-17T00:35:26.771Z,1001.53
2019-05-17T00:36:26.943Z,1001.59
2019-05-17T00:37:26.801Z,1001.54
2019-05-17T00:38:27.408Z,1001.56
2019-05-17T00:39:27.207Z,1001.55
2019-05-17T00:40:27.099Z,1001.47
2019-05-17T00:41:26.881Z,1001.50
2019-05-17T00:42:26.406Z,1001.49
2019-05-17T00:43:26.296Z,1001.44
2019-05-17T00:44:27.214Z,1001.43
2019-05-17T00:45:26.723Z,1001.42
2019-05-17T00:46:26.853Z,1001.49
2019-05-17T00:47:26.803Z,1001.48
2019-05-17T00:48:26.499Z,1001.44
2019-05-17T00:49:26.410Z,1001.45
2019-05-17T00:50:27.497Z,1001.37
2019-05-17T00:51:27.379Z,1001.34
2019-05-17T00:52:27.276Z,1001.30
2019-05-17T00:53:26.930Z,1001.29
2019-05-17T00:54:26.937Z,1001.30
2019-05-17T00:55:26.801Z,1001.25
2019-05-17T00:56:26.619Z,1001.29
2019-05-17T00:57:27.391Z,1001.28
2019-05-17T00:58:26.343Z,1001.26
2019-05-17T00:59:26.284Z,1001.26
2019-05-17T01:00:27.803Z,1001.23
2019-05-17T01:01:27.026Z,1001.31
2019-05-17T01:02:27.029Z,1001.23
2019-05-17T01:03:26.930Z,1001.24
2019-05-17T01:04:27.594Z,1001.22
2019-05-17T01:05:27.462Z,1001.25
2019-05-17T01:06:27.550Z,1001.22
2019-05-17T01:07:26.861Z,1001.22
2019-05-17T01:08:26.564Z,1001.12
2019-05-17T01:09:29.331Z,1001.21
2019-05-17T01:10:27.221Z,1001.18
2019-05-17T01:11:27.063Z,1001.17
2019-05-17T01:12:27.183Z,1001.16
2019-05-17T01:13:26.724Z,1001.21
2019-05-17T01:14:26.589Z,1001.18
2019-05-17T01:15:27.335Z,1001.24
2019-05-17T01:16:27.243Z,1001.22
2019-05-17T01:17:27.096Z,1001.16
2019-05-17T01:18:26.951Z,1001.14
2019-05-17T01:19:27.024Z,1001.14
2019-05-17T01:20:27.590Z,1001.15
2019-05-17T01:21:26.316Z,1001.14
2019-05-17T01:22:26.285Z,1001.13
2019-05-17T01:23:28.305Z,1001.12
2019-05-17T01:24:27.429Z,1001.03
2019-05-17T01:25:27.256Z,1000.92
2019-05-17T01:26:26.721Z,1000.97
2019-05-17T01:27:26.350Z,1000.97
2019-05-17T01:28:26.998Z,1001.00
2019-05-17T01:29:26.804Z,1000.96
2019-05-17T01:30:30.316Z,1000.95
2019-05-17T01:31:26.575Z,1000.94
2019-05-17T01:32:26.672Z,1000.96
2019-05-17T01:33:26.488Z,1000.97
2019-05-17T01:34:27.289Z,1000.95
2019-05-17T01:35:26.652Z,1000.89
2019-05-17T01:36:26.378Z,1000.92
2019-05-17T01:37:27.541Z,1000.93
2019-05-17T01:38:26.928Z,1000.91
2019-05-17T01:39:26.885Z,1000.92
2019-05-17T01:40:26.480Z,1000.95
2019-05-17T01:41:26.694Z,1000.93
2019-05-17T01:42:26.515Z,1000.87
2019-05-17T01:43:27.293Z,1000.85
2019-05-17T01:44:27.242Z,1000.83
2019-05-17T01:45:26.944Z,1000.81
2019-05-17T01:46:26.540Z,1000.88
2019-05-17T01:47:27.204Z,1000.79
2019-05-17T01:48:27.064Z,1000.82
2019-05-17T01:49:27.068Z,1000.88
2019-05-17T01:50:26.644Z,1000.75
2019-05-17T01:51:26.333Z,1000.77
2019-05-17T01:52:27.192Z,1000.86
2019-05-17T01:53:27.044Z,1000.83
2019-05-17T01:54:26.886Z,1000.80
2019-05-17T01:55:26.550Z,1000.77
2019-05-17T01:56:26.286Z,1000.75
2019-05-17T01:57:27.284Z,1000.73
2019-05-17T01:58:26.943Z,1000.81
2019-05-17T01:59:26.769Z,1000.78
2019-05-17T02:00:26.574Z,1000.70
2019-05-17T02:01:27.398Z,1000.78
2019-05-17T02:02:27.025Z,1000.78
2019-05-17T02:03:26.783Z,1000.79
2019-05-17T02:04:26.810Z,1000.74
2019-05-17T02:05:27.232Z,1000.71
2019-05-17T02:06:26.989Z,1000.73
2019-05-17T02:07:26.730Z,1000.67
2019-05-17T02:08:26.456Z,1000.72
2019-05-17T02:09:37.345Z,1000.64
2019-05-17T02:10:27.169Z,1000.67
2019-05-17T02:11:26.946Z,1000.66
2019-05-17T02:12:26.718Z,1000.63
2019-05-17T02:13:26.817Z,1000.62
2019-05-17T02:14:26.710Z,1000.60
2019-05-17T02:15:26.761Z,1000.60
2019-05-17T02:16:26.731Z,1000.61
2019-05-17T02:17:26.569Z,1000.54
2019-05-17T02:18:26.629Z,1000.60
2019-05-17T02:19:26.528Z,1000.64
2019-05-17T02:20:24.836Z,1000.56
2019-05-17T02:21:27.472Z,1000.56
2019-05-17T02:22:27.083Z,1000.55
2019-05-17T02:23:26.858Z,1000.58
2019-05-17T02:24:27.376Z,1000.67
2019-05-17T02:25:27.095Z,1000.59
2019-05-17T02:26:26.684Z,1000.59
2019-05-17T02:27:28.454Z,1000.57
2019-05-17T02:28:25.737Z,1000.61
2019-05-17T02:29:24.759Z,1000.56
2019-05-17T02:30:24.731Z,1000.60
2019-05-17T02:31:25.325Z,1000.56
2019-05-17T02:32:24.700Z,1000.55
2019-05-17T02:33:24.692Z,1000.54
2019-05-17T02:34:25.825Z,1000.51
2019-05-17T02:35:24.681Z,1000.58
2019-05-17T02:36:24.701Z,1000.52
2019-05-17T02:37:24.644Z,1000.48
2019-05-17T02:38:24.630Z,1000.51
2019-05-17T02:39:24.644Z,1000.52
2019-05-17T02:40:24.612Z,1000.45
2019-05-17T02:41:25.322Z,1000.45
2019-05-17T02:42:24.586Z,1000.44
2019-05-17T02:43:24.575Z,1000.40
2019-05-17T02:44:24.593Z,1000.46
2019-05-17T02:45:24.557Z,1000.43
2019-05-17T02:46:24.549Z,1000.51
2019-05-17T02:47:24.587Z,1000.44
2019-05-17T02:48:25.364Z,1000.48
2019-05-17T02:49:24.564Z,1000.47
2019-05-17T02:50:24.517Z,1000.41
2019-05-17T02:51:24.487Z,1000.44
2019-05-17T02:52:24.489Z,1000.43
2019-05-17T02:53:24.460Z,1000.42
2019-05-17T02:54:24.465Z,1000.41
2019-05-17T02:55:24.465Z,1000.37
2019-05-17T02:56:24.431Z,1000.40
2019-05-17T02:57:24.422Z,1000.37
2019-05-17T02:58:24.432Z,1000.41
2019-05-17T02:59:24.395Z,1000.40
2019-05-17T03:00:24.409Z,1000.38
2019-05-17T03:01:24.380Z,1000.39
2019-05-17T03:02:27.997Z,1000.39
2019-05-17T03:03:24.362Z,1000.39
2019-05-17T03:04:24.349Z,1000.35
2019-05-17T03:05:24.365Z,1000.35
2019-05-17T03:06:24.314Z,1000.32
2019-05-17T03:07:24.320Z,1000.35
2019-05-17T03:08:24.293Z,1000.33
2019-05-17T03:09:24.292Z,1000.28
2019-05-17T03:10:28.839Z,1000.36
2019-05-17T03:11:24.260Z,1000.37
2019-05-17T03:12:24.247Z,1000.32
2019-05-17T03:13:24.245Z,1000.29
2019-05-17T03:14:24.226Z,1000.31
2019-05-17T03:15:24.263Z,1000.31
2019-05-17T03:16:24.201Z,1000.28
2019-05-17T03:17:24.220Z,1000.27
2019-05-17T03:18:24.179Z,1000.26
2019-05-17T03:19:24.192Z,1000.25
2019-05-17T03:20:24.195Z,1000.25
2019-05-17T03:21:24.185Z,1000.20
2019-05-17T03:22:24.134Z,1000.26
2019-05-17T03:23:24.125Z,1000.26
2019-05-17T03:24:24.122Z,1000.32
2019-05-17T03:25:24.773Z,1000.24
2019-05-17T03:26:24.091Z,1000.25
2019-05-17T03:27:24.079Z,1000.28
2019-05-17T03:28:24.072Z,1000.14
2019-05-17T03:29:24.065Z,1000.22
2019-05-17T03:30:26.000Z,1000.21
2019-05-17T03:31:26.643Z,1000.26
2019-05-17T03:32:26.594Z,1000.19
2019-05-17T03:33:26.656Z,1000.17
2019-05-17T03:34:26.615Z,1000.18
2019-05-17T03:35:26.411Z,1000.20
2019-05-17T03:36:25.959Z,1000.20
2019-05-17T03:37:30.198Z,1000.30
2019-05-17T03:38:24.957Z,1000.22
2019-05-17T03:39:23.946Z,1000.13
2019-05-17T03:40:47.411Z,1000.23
2019-05-17T03:41:29.168Z,1000.16
2019-05-17T03:42:23.995Z,1000.19
2019-05-17T03:43:23.947Z,1000.17
2019-05-17T03:44:23.899Z,1000.13
2019-05-17T03:45:23.913Z,1000.13
2019-05-17T03:46:23.869Z,1000.14
2019-05-17T03:47:23.871Z,1000.11
2019-05-17T03:48:23.857Z,1000.15
2019-05-17T03:49:23.861Z,1000.11
2019-05-17T03:50:23.851Z,1000.15
2019-05-17T03:51:23.812Z,1000.10
2019-05-17T03:52:23.825Z,1000.09
2019-05-17T03:53:23.840Z,1000.17
2019-05-17T03:54:23.815Z,1000.13
2019-05-17T03:55:23.811Z,1000.08
2019-05-17T03:56:23.770Z,1000.12
2019-05-17T03:57:24.191Z,1000.07
2019-05-17T03:58:23.800Z,1000.12
2019-05-17T03:59:24.389Z,1000.10
2019-05-17T04:00:24.257Z,1000.06
2019-05-17T04:01:24.313Z,1000.05
2019-05-17T04:02:23.695Z,1000.02
2019-05-17T04:03:23.689Z,1000.06
2019-05-17T04:04:23.665Z,1000.05
2019-05-17T04:05:23.772Z,1000.04
2019-05-17T04:06:24.084Z,1000.09
2019-05-17T04:07:23.864Z,1000.01
2019-05-17T04:08:23.644Z,1000.07
2019-05-17T04:09:23.614Z,1000.03
2019-05-17T04:10:23.635Z,1000.09
2019-05-17T04:11:31.321Z,1000.04
2019-05-17T04:12:24.579Z,1000.09
2019-05-17T04:13:23.809Z,1000.03
2019-05-17T04:14:23.563Z,1000.05
2019-05-17T04:15:24.294Z,1000.01
2019-05-17T04:16:23.957Z,999.99
2019-05-17T04:17:23.537Z,999.98
2019-05-17T04:18:23.766Z,999.95
2019-05-17T04:19:23.509Z,999.97
2019-05-17T04:20:23.530Z,999.96
2019-05-17T04:21:23.810Z,999.95
2019-05-17T04:22:24.016Z,999.93
2019-05-17T04:23:23.589Z,999.92
2019-05-17T04:24:23.479Z,999.95
2019-05-17T04:25:23.590Z,999.98
2019-05-17T04:26:23.423Z,1000.00
2019-05-17T04:27:26.333Z,999.99
2019-05-17T04:28:24.323Z,999.97
2019-05-17T04:29:23.413Z,999.96
2019-05-17T04:30:23.627Z,999.98
2019-05-17T04:31:23.424Z,999.95
2019-05-17T04:32:23.639Z,999.93
2019-05-17T04:33:23.660Z,999.92
2019-05-17T04:34:23.331Z,999.92
2019-05-17T04:35:23.501Z,999.93
2019-05-17T04:36:23.320Z,999.94
2019-05-17T04:37:23.811Z,999.95
2019-05-17T04:38:24.112Z,999.94
2019-05-17T04:39:23.324Z,999.93
2019-05-17T04:40:23.427Z,999.91
2019-05-17T04:41:40.153Z,999.86
2019-05-17T04:42:23.257Z,999.93
2019-05-17T04:43:23.473Z,999.87
2019-05-17T04:44:23.327Z,999.87
2019-05-17T04:45:23.461Z,999.89
2019-05-17T04:46:24.834Z,999.89
2019-05-17T04:47:23.251Z,999.91
2019-05-17T04:48:23.879Z,999.87
2019-05-17T04:49:24.215Z,999.88
2019-05-17T04:50:23.335Z,999.86
2019-05-17T04:51:23.413Z,999.84
2019-05-17T04:52:23.136Z,999.89
2019-05-17T04:53:23.539Z,999.91
2019-05-17T04:54:23.129Z,999.92
2019-05-17T04:55:23.330Z,999.82
2019-05-17T04:56:23.158Z,999.82
2019-05-17T04:57:23.361Z,999.82
2019-05-17T04:58:23.483Z,999.87
2019-05-17T04:59:24.281Z,999.92
2019-05-17T05:00:23.076Z,999.84
2019-05-17T05:01:23.712Z,999.81
2019-05-17T05:02:23.739Z,999.90
2019-05-17T05:03:23.405Z,999.86
2019-05-17T05:04:23.008Z,999.92
2019-05-17T05:05:23.146Z,999.80
2019-05-17T05:06:23.492Z,999.88
2019-05-17T05:07:22.961Z,999.86
2019-05-17T05:08:23.002Z,999.89
2019-05-17T05:09:23.258Z,999.87
2019-05-17T05:10:23.022Z,999.83
2019-05-17T05:11:23.459Z,999.86
2019-05-17T05:12:23.061Z,999.86
2019-05-17T05:13:23.034Z,999.86
2019-05-17T05:14:23.436Z,999.82
2019-05-17T05:15:22.911Z,999.83
2019-05-17T05:16:22.902Z,999.85
2019-05-17T05:17:22.858Z,999.87
2019-05-17T05:18:22.885Z,999.86
2019-05-17T05:19:22.835Z,999.88
2019-05-17T05:20:23.319Z,999.85
2019-05-17T05:21:23.212Z,999.82
2019-05-17T05:22:22.818Z,999.83
2019-05-17T05:23:23.864Z,999.77
2019-05-17T05:24:22.791Z,999.85
2019-05-17T05:25:22.765Z,999.82
2019-05-17T05:26:22.801Z,999.89
2019-05-17T05:27:22.756Z,999.85
2019-05-17T05:28:22.772Z,999.79
2019-05-17T05:29:22.743Z,999.86
2019-05-17T05:30:22.771Z,999.77
2019-05-17T05:31:22.916Z,999.76
2019-05-17T05:32:22.720Z,999.79
2019-05-17T05:33:22.683Z,999.75
2019-05-17T05:34:22.685Z,999.75
2019-05-17T05:35:22.717Z,999.74
2019-05-17T05:36:22.669Z,999.72
2019-05-17T05:37:23.264Z,999.70
2019-05-17T05:38:22.630Z,999.70
2019-05-17T05:39:22.923Z,999.72
2019-05-17T05:40:22.624Z,999.78
2019-05-17T05:41:22.731Z,999.69
2019-05-17T05:42:22.643Z,999.75
2019-05-17T05:43:22.809Z,999.73
2019-05-17T05:44:22.560Z,999.70
2019-05-17T05:45:22.598Z,999.70
2019-05-17T05:46:22.631Z,999.78
2019-05-17T05:47:22.562Z,999.70
2019-05-17T05:48:22.522Z,999.71
2019-05-17T05:49:22.499Z,999.72
2019-05-17T05:50:22.513Z,999.75
2019-05-17T05:51:22.498Z,999.81
2019-05-17T05:52:22.467Z,999.68
2019-05-17T05:53:22.545Z,999.72
2019-05-17T05:54:22.660Z,999.76
2019-05-17T05:55:23.455Z,999.71
2019-05-17T05:56:22.448Z,999.76
2019-05-17T05:57:22.414Z,999.79
2019-05-17T05:58:23.933Z,999.79
2019-05-17T05:59:22.598Z,999.72
2019-05-17T06:00:22.433Z,999.67
2019-05-17T06:01:22.413Z,999.72
2019-05-17T06:02:22.372Z,999.75
2019-05-17T06:03:22.589Z,999.70
2019-05-17T06:04:22.439Z,999.73
2019-05-17T06:05:22.335Z,999.73
2019-05-17T06:06:23.309Z,999.76
2019-05-17T06:07:22.313Z,999.73
2019-05-17T06:08:22.902Z,999.71
2019-05-17T06:09:22.506Z,999.66
2019-05-17T06:10:22.259Z,999.67
2019-05-17T06:11:22.290Z,999.72
2019-05-17T06:12:27.679Z,999.74
2019-05-17T06:13:23.247Z,999.75
2019-05-17T06:14:22.251Z,999.70
2019-05-17T06:15:22.227Z,999.71
2019-05-17T06:16:22.708Z,999.71
2019-05-17T06:17:22.193Z,999.70
2019-05-17T06:18:22.788Z,999.67
2019-05-17T06:19:22.459Z,999.71
2019-05-17T06:20:22.487Z,999.74
2019-05-17T06:21:22.621Z,999.75
2019-05-17T06:22:22.828Z,999.67
2019-05-17T06:23:23.493Z,999.70
2019-05-17T06:24:22.584Z,999.59
2019-05-17T06:25:23.445Z,999.56
2019-05-17T06:26:23.740Z,999.67
2019-05-17T06:27:22.070Z,999.67
2019-05-17T06:28:22.399Z,999.63
2019-05-17T06:29:22.285Z,999.65
2019-05-17T06:30:22.150Z,999.61
2019-05-17T06:31:24.112Z,999.52
2019-05-17T06:32:22.776Z,999.53
2019-05-17T06:33:30.709Z,999.50
2019-05-17T06:34:23.000Z,999.54
2019-05-17T06:35:21.997Z,999.60
2019-05-17T06:36:22.057Z,999.59
2019-05-17T06:37:22.483Z,999.60
2019-05-17T06:38:22.493Z,999.52
2019-05-17T06:39:22.487Z,999.42
2019-05-17T06:40:21.947Z,999.50
2019-05-17T06:41:21.944Z,999.58
2019-05-17T06:42:37.054Z,999.58
2019-05-17T06:43:22.901Z,999.66
2019-05-17T06:44:21.973Z,999.51
2019-05-17T06:45:22.153Z,999.55
2019-05-17T06:46:22.855Z,999.51
2019-05-17T06:47:22.549Z,999.51
2019-05-17T06:48:22.579Z,999.40
2019-05-17T06:49:22.419Z,999.44
2019-05-17T06:50:23.611Z,999.39
2019-05-17T06:51:22.137Z,999.57
2019-05-17T06:52:22.583Z,999.52
2019-05-17T06:53:22.116Z,999.60
2019-05-17T06:54:21.783Z,999.46
2019-05-17T06:55:21.771Z,999.51
2019-05-17T06:56:22.946Z,999.47
2019-05-17T06:57:23.259Z,999.50
2019-05-17T06:58:22.264Z,999.49
2019-05-17T06:59:21.712Z,999.31
2019-05-17T07:00:23.913Z,999.49
2019-05-17T07:01:21.747Z,999.40
2019-05-17T07:02:21.710Z,999.44
2019-05-17T07:03:21.729Z,999.43
2019-05-17T07:04:21.665Z,999.45
2019-05-17T07:05:21.659Z,999.34
2019-05-17T07:06:21.678Z,999.54
2019-05-17T07:07:22.810Z,999.46
2019-05-17T07:08:21.613Z,999.50
2019-05-17T07:09:21.612Z,999.42
2019-05-17T07:10:21.591Z,999.37
2019-05-17T07:11:21.589Z,999.52
2019-05-17T07:12:21.608Z,999.48
2019-05-17T07:13:21.560Z,999.31
2019-05-17T07:14:21.559Z,999.41
2019-05-17T07:15:21.535Z,999.51
2019-05-17T07:16:21.564Z,999.31
2019-05-17T07:17:21.542Z,999.40
2019-05-17T07:18:21.528Z,999.35
2019-05-17T07:19:21.489Z,999.41
2019-05-17T07:20:21.589Z,999.36
2019-05-17T07:21:21.479Z,999.33
2019-05-17T07:22:21.593Z,999.37
2019-05-17T07:23:21.455Z,999.37
2019-05-17T07:24:21.445Z,999.40
2019-05-17T07:25:21.422Z,999.33
2019-05-17T07:26:21.438Z,999.38
2019-05-17T07:27:21.455Z,999.34
2019-05-17T07:28:21.410Z,999.40
2019-05-17T07:29:21.410Z,999.35
2019-05-17T07:30:21.439Z,999.29
2019-05-17T07:31:23.254Z,999.25
2019-05-17T07:32:21.397Z,999.31
2019-05-17T07:33:21.343Z,999.22
2019-05-17T07:34:21.328Z,999.27
2019-05-17T07:35:21.316Z,999.26
2019-05-17T07:36:21.313Z,999.29
2019-05-17T07:37:21.343Z,999.28
2019-05-17T07:38:21.280Z,999.19
2019-05-17T07:39:21.263Z,999.24
2019-05-17T07:40:21.295Z,999.29
2019-05-17T07:41:21.248Z,999.26
2019-05-17T07:42:21.268Z,999.23
2019-05-17T07:43:21.223Z,999.23
2019-05-17T07:44:21.213Z,999.17
2019-05-17T07:45:21.226Z,999.12
2019-05-17T07:46:21.207Z,999.14
2019-05-17T07:47:21.196Z,999.17
2019-05-17T07:48:21.169Z,999.04
2019-05-17T07:49:21.214Z,999.17
2019-05-17T07:50:21.142Z,999.12
2019-05-17T07:51:21.130Z,999.07
2019-05-17T07:52:21.833Z,999.10
2019-05-17T07:53:21.109Z,999.10
2019-05-17T07:54:21.110Z,999.09
2019-05-17T07:55:23.055Z,999.11
2019-05-17T07:56:21.083Z,999.09
2019-05-17T07:57:21.104Z,999.06
2019-05-17T07:58:21.507Z,999.15
2019-05-17T07:59:21.087Z,999.09
2019-05-17T08:00:21.053Z,999.09
2019-05-17T08:01:21.051Z,998.99
2019-05-17T08:02:21.039Z,999.04
2019-05-17T08:03:24.228Z,999.06
2019-05-17T08:04:21.002Z,999.08
2019-05-17T08:05:21.577Z,999.05
2019-05-17T08:06:20.965Z,999.02
2019-05-17T08:07:21.007Z,999.08
2019-05-17T08:08:21.026Z,999.02
2019-05-17T08:09:20.943Z,999.00
2019-05-17T08:10:20.927Z,998.95
2019-05-17T08:11:20.911Z,998.98
2019-05-17T08:12:20.954Z,998.99
2019-05-17T08:13:30.053Z,999.01
2019-05-17T08:14:29.565Z,999.03
2019-05-17T08:15:21.871Z,998.95
2019-05-17T08:16:20.859Z,999.00
2019-05-17T08:17:20.877Z,998.93
2019-05-17T08:18:20.879Z,998.88
2019-05-17T08:19:20.821Z,998.96
2019-05-17T08:20:20.815Z,998.89
2019-05-17T08:21:20.808Z,998.89
2019-05-17T08:22:20.827Z,998.94
2019-05-17T08:23:20.811Z,998.92
2019-05-17T08:24:20.762Z,998.93
2019-05-17T08:25:20.776Z,998.95
2019-05-17T08:26:20.741Z,998.96
2019-05-17T08:27:20.759Z,998.93
2019-05-17T08:28:21.604Z,999.00
2019-05-17T08:29:20.727Z,998.92
2019-05-17T08:30:20.957Z,998.96
2019-05-17T08:31:20.691Z,998.92
2019-05-17T08:32:20.958Z,998.90
2019-05-17T08:33:20.668Z,998.89
2019-05-17T08:34:20.661Z,998.94
2019-05-17T08:35:20.645Z,998.76
2019-05-17T08:36:20.671Z,998.89
2019-05-17T08:37:20.649Z,998.89
2019-05-17T08:38:20.610Z,998.90
2019-05-17T08:39:20.605Z,998.86
2019-05-17T08:40:20.588Z,998.86
2019-05-17T08:41:20.936Z,998.85
2019-05-17T08:42:20.652Z,998.86
2019-05-17T08:43:21.293Z,998.93
2019-05-17T08:44:20.536Z,998.93
2019-05-17T08:45:20.803Z,998.88
2019-05-17T08:46:20.524Z,998.90
2019-05-17T08:47:21.055Z,998.87
2019-05-17T08:48:20.756Z,998.87
2019-05-17T08:49:20.482Z,998.85
2019-05-17T08:50:20.474Z,998.81
2019-05-17T08:51:20.462Z,998.82
2019-05-17T08:52:21.384Z,998.70
2019-05-17T08:53:20.440Z,998.73
2019-05-17T08:54:20.433Z,998.77
2019-05-17T08:55:20.578Z,998.80
2019-05-17T08:56:20.630Z,998.83
2019-05-17T08:57:20.701Z,998.76
2019-05-17T08:58:21.644Z,998.69
2019-05-17T08:59:20.382Z,998.73
2019-05-17T09:00:20.839Z,998.70
2019-05-17T09:01:20.367Z,998.71
2019-05-17T09:02:20.391Z,998.69
2019-05-17T09:03:20.353Z,998.60
2019-05-17T09:04:20.314Z,998.66
2019-05-17T09:05:21.105Z,998.65
2019-05-17T09:06:20.310Z,998.70
2019-05-17T09:07:20.539Z,998.67
2019-05-17T09:08:20.690Z,998.75
2019-05-17T09:09:20.484Z,998.67
2019-05-17T09:10:20.812Z,998.62
2019-05-17T09:11:20.275Z,998.65
2019-05-17T09:12:20.738Z,998.67
2019-05-17T09:13:21.379Z,998.66
2019-05-17T09:14:21.469Z,998.65
2019-05-17T09:15:20.482Z,998.66
2019-05-17T09:16:20.214Z,998.65
2019-05-17T09:17:20.169Z,998.65
2019-05-17T09:18:20.761Z,998.63
2019-05-17T09:19:20.166Z,998.63
2019-05-17T09:20:20.564Z,998.63
2019-05-17T09:21:21.896Z,998.63
2019-05-17T09:22:20.121Z,998.65
2019-05-17T09:23:20.202Z,998.56
2019-05-17T09:24:20.091Z,998.62
2019-05-17T09:25:22.009Z,998.69
2019-05-17T09:26:20.181Z,998.70
2019-05-17T09:27:20.057Z,998.63
2019-05-17T09:28:20.855Z,998.66
2019-05-17T09:29:20.160Z,998.65
2019-05-17T09:30:20.479Z,998.61
2019-05-17T09:31:20.501Z,998.61
2019-05-17T09:32:20.308Z,998.61
2019-05-17T09:33:20.056Z,998.60
2019-05-17T09:34:20.288Z,998.62
2019-05-17T09:35:20.786Z,998.66
2019-05-17T09:36:20.463Z,998.56
2019-05-17T09:37:22.528Z,998.56
2019-05-17T09:38:20.484Z,998.54
2019-05-17T09:39:20.147Z,998.59
2019-05-17T09:40:20.152Z,998.47
2019-05-17T09:41:20.146Z,998.51
2019-05-17T09:42:21.022Z,998.47
2019-05-17T09:43:20.487Z,998.47
2019-05-17T09:44:20.661Z,998.41
2019-05-17T09:45:20.336Z,998.44
2019-05-17T09:46:19.926Z,998.37
2019-05-17T09:47:20.606Z,998.40
2019-05-17T09:48:19.879Z,998.37
2019-05-17T09:49:19.824Z,998.42
2019-05-17T09:50:20.099Z,998.46
2019-05-17T09:51:19.788Z,998.41
2019-05-17T09:52:20.083Z,998.41
2019-05-17T09:53:20.285Z,998.40
2019-05-17T09:54:19.778Z,998.44
2019-05-17T09:55:19.798Z,998.38
2019-05-17T09:56:20.621Z,998.42
2019-05-17T09:57:20.445Z,998.37
2019-05-17T09:58:21.660Z,998.29
2019-05-17T09:59:20.397Z,998.31
2019-05-17T10:00:20.790Z,998.28
2019-05-17T10:01:20.451Z,998.32
2019-05-17T10:02:20.405Z,998.39
2019-05-17T10:03:23.758Z,998.36
2019-05-17T10:04:19.924Z,998.30
2019-05-17T10:05:20.177Z,998.31
2019-05-17T10:06:20.206Z,998.30
2019-05-17T10:07:20.742Z,998.30
2019-05-17T10:08:19.654Z,998.37
2019-05-17T10:09:19.895Z,998.28
2019-05-17T10:10:20.248Z,998.26
2019-05-17T10:11:20.300Z,998.20
2019-05-17T10:12:20.237Z,998.20
2019-05-17T10:13:20.239Z,998.14
2019-05-17T10:14:27.609Z,998.18
2019-05-17T10:15:20.904Z,998.26
2019-05-17T10:16:20.343Z,998.25
2019-05-17T10:17:21.159Z,998.14
2019-05-17T10:18:20.063Z,998.21
2019-05-17T10:19:21.865Z,998.17
2019-05-17T10:20:20.066Z,998.17
2019-05-17T10:21:19.955Z,998.13
2019-05-17T10:22:20.003Z,998.12
2019-05-17T10:23:19.733Z,998.10
2019-05-17T10:24:20.049Z,998.13
2019-05-17T10:25:20.433Z,998.12
2019-05-17T10:26:19.824Z,998.08
2019-05-17T10:27:19.716Z,998.07
2019-05-17T10:28:20.485Z,998.06
2019-05-17T10:29:19.376Z,998.05
2019-05-17T10:30:20.925Z,998.09
2019-05-17T10:31:19.791Z,998.07
2019-05-17T10:32:20.562Z,998.12
2019-05-17T10:33:20.008Z,997.98
2019-05-17T10:34:20.429Z,998.06
2019-05-17T10:35:19.905Z,998.03
2019-05-17T10:36:20.215Z,997.98
2019-05-17T10:37:20.299Z,998.06
2019-05-17T10:38:19.608Z,998.07
2019-05-17T10:39:19.425Z,998.03
2019-05-17T10:40:20.783Z,998.10
2019-05-17T10:41:19.903Z,998.13
2019-05-17T10:42:20.951Z,998.11
2019-05-17T10:43:20.423Z,998.03
2019-05-17T10:44:19.854Z,998.12
2019-05-17T10:45:19.877Z,998.08
2019-05-17T10:46:20.626Z,998.05
2019-05-17T10:47:19.624Z,998.03
2019-05-17T10:48:21.162Z,998.07
2019-05-17T10:49:20.237Z,998.03
2019-05-17T10:50:20.566Z,998.05
2019-05-17T10:51:20.211Z,998.03
2019-05-17T10:52:20.284Z,998.03
2019-05-17T10:53:20.475Z,998.00
2019-05-17T10:54:20.686Z,998.06
2019-05-17T10:55:19.984Z,998.08
2019-05-17T10:56:19.933Z,998.12
2019-05-17T10:57:19.529Z,998.07
2019-05-17T10:58:21.296Z,998.12
2019-05-17T10:59:20.327Z,998.07
2019-05-17T11:00:19.754Z,998.07
2019-05-17T11:01:20.048Z,998.09
2019-05-17T11:02:19.647Z,998.04
2019-05-17T11:03:20.325Z,998.06
2019-05-17T11:04:19.769Z,998.08
2019-05-17T11:05:20.113Z,998.10
2019-05-17T11:06:19.766Z,998.08
2019-05-17T11:07:19.924Z,998.10
2019-05-17T11:08:19.763Z,998.11
2019-05-17T11:09:20.435Z,998.15
2019-05-17T11:10:19.460Z,998.14
2019-05-17T11:11:20.013Z,998.17
2019-05-17T11:12:18.952Z,998.17
2019-05-17T11:13:18.938Z,998.12
2019-05-17T11:14:19.864Z,998.14
2019-05-17T11:15:18.867Z,998.12
2019-05-17T11:16:18.836Z,998.05
2019-05-17T11:17:18.841Z,998.07
2019-05-17T11:18:18.821Z,998.08
2019-05-17T11:19:18.837Z,998.12
2019-05-17T11:20:18.798Z,998.11
2019-05-17T11:21:18.785Z,998.10
2019-05-17T11:22:18.853Z,998.08
2019-05-17T11:23:18.800Z,998.03
2019-05-17T11:24:18.787Z,998.09
2019-05-17T11:25:18.743Z,998.11
2019-05-17T11:26:18.726Z,998.12
2019-05-17T11:27:18.729Z,998.13
2019-05-17T11:28:18.739Z,998.13
2019-05-17T11:29:18.725Z,998.08
2019-05-17T11:30:18.696Z,998.10
2019-05-17T11:31:18.697Z,998.08
2019-05-17T11:32:18.660Z,998.04
2019-05-17T11:33:18.682Z,998.03
2019-05-17T11:34:18.694Z,998.09
2019-05-17T11:35:18.629Z,998.05
2019-05-17T11:36:18.655Z,998.02
2019-05-17T11:37:18.615Z,998.05
2019-05-17T11:38:18.593Z,997.97
2019-05-17T11:39:18.668Z,997.99
2019-05-17T11:40:18.575Z,998.01
2019-05-17T11:41:21.628Z,997.95
2019-05-17T11:42:18.544Z,998.09
2019-05-17T11:43:18.538Z,998.06
2019-05-17T11:44:18.559Z,998.03
2019-05-17T11:45:27.145Z,998.04
2019-05-17T11:46:19.525Z,998.03
2019-05-17T11:47:18.514Z,998.08
2019-05-17T11:48:18.491Z,998.01
2019-05-17T11:49:18.509Z,998.05
2019-05-17T11:50:18.510Z,998.09
2019-05-17T11:51:18.447Z,998.05
2019-05-17T11:52:18.438Z,998.03
2019-05-17T11:53:18.480Z,998.02
2019-05-17T11:54:18.525Z,998.01
2019-05-17T11:55:18.407Z,997.95
2019-05-17T11:56:18.403Z,997.98
2019-05-17T11:57:18.384Z,997.92
2019-05-17T11:58:18.394Z,997.83
2019-05-17T11:59:18.411Z,997.92
2019-05-17T12:00:18.354Z,997.89
2019-05-17T12:01:18.337Z,997.96
2019-05-17T12:02:21.356Z,997.90
2019-05-17T12:03:18.338Z,997.97
2019-05-17T12:04:18.336Z,997.98
2019-05-17T12:05:18.294Z,998.00
2019-05-17T12:06:18.293Z,997.95
2019-05-17T12:07:18.295Z,997.97
2019-05-17T12:08:18.256Z,998.03
2019-05-17T12:09:18.285Z,997.96
2019-05-17T12:10:18.254Z,997.97
2019-05-17T12:11:18.245Z,998.02
2019-05-17T12:12:18.242Z,997.94
2019-05-17T12:13:18.207Z,998.02
2019-05-17T12:14:18.218Z,998.06
2019-05-17T12:15:18.179Z,997.98
2019-05-17T12:16:18.169Z,998.03
2019-05-17T12:17:18.158Z,998.01
2019-05-17T12:18:18.148Z,997.93
2019-05-17T12:19:18.175Z,997.94
2019-05-17T12:20:18.171Z,998.00